San Antonio, TX

7:53 PM CST on December 18, 2014 (GMT -0600)
San Antonio International | Change Station
CLOSE
Current Station
Airport
Location: San Antonio,
Elevation: 794 ft
Nearby Weather Stations

Elev 794 ft 29.53 °N, 98.47 °W | Updated 1 hour ago

Overcast
Overcast
61 °F
Feels Like 61 °F
N
13
Wind Variable Wind from ENE

Today
High -- | Low -- °F
--% Chance of Precip.
Yesterday
High -- | Low -- °F
Precip. -- in
7:22 AM 5:38 PM
Waning Crescent, 11% visible
Pressure 29.99 in
Visibility 10.0 miles
Clouds Overcast 900 ft
Dew Point 57 °F
Humidity 87%
Rainfall 0.00 in
Snow Depth Not available.
UV 0 out of 12
Pollen 8.50 out of 12
Air Quality Not available.
Flu Activity Not available.
METAR KSAT 190051Z 06011KT 10SM OVC009 16/14 A3003 RMK AO2 SLP156 T01610139

More Conditions Fewer Conditions

Pressure 29.99 in
Visibility 10.0 miles
Clouds Overcast 900 ft
Dew Point 57 °F
Humidity 87%
Rainfall 0.00 in
Snow Depth Not available.
UV 0 out of 12
Pollen 8.50 out of 12
Air Quality Not available.
Flu Activity Not available.
METAR KSAT 190051Z 06011KT 10SM OVC009 16/14 A3003 RMK AO2 SLP156 T01610139

More Conditions Fewer Conditions

Nowcast | as of 7:35 PM CST on December 18, 2014

Through 9 PM...areas of light rain and rain showers will continue to develop and move north across south central Texas. Rainfall will remain light with amounts ranging from a few hundredths to a quarter of an inch. Rainfall coverage will increase during the late evening and become more widespread overnight with isolated thunderstorms.

×

10-Day Weather Forecast

Almanac

Astronomy

Dec. 18, 2014 Rise Set
Actual Time
Civil Twilight
Nautical Twilight
Astronomical Twilight
Moon
Length of Visible Light
Length of Day
Tomorrow will be .
, % of the Moon is Illuminated

Today's Extremes

State Highs State Lows

Community

WunderPhotos

Upload Photos

1,779,034 photos uploaded!

WunderBlogs® & News

Nearby

Air Quality

  Air Quality AQ Index Pollutant
Not available.

Snow Depth

Station Depth Elevation

Earthquake Activity

City Distance Mag. Time & Date
Minimum magnitude displayed is 2.5.

Coastal Water Temperatures

Place Temperature

Nearby Weather Stations